Aeroporto :







RITROVATECI SU...

 
LOGIN :

Iscrizione | Disclaimer

   EN    FR    IT 

 









Sommario :    VFR   VFR Marginale   IFR   IFR Intensivo   IFR Molto Intensivo
Visibilità : 
Base nubi : 
>= 8 km
>= 3000ft
5 / 8 km
1000 / 3000 ft
1500m / 5 km
500 / 1000 ft
800 / 1500m
200 / 500 ft
< 800m
< 200 ft
Simboli :   Temporali  Nebbia  Neve Forte  Precipitazioni Forti  Vento > 20 kt






- Altitudine del aeroporto : 322 ft


KDAW - Skyhaven

ULTIMO METAR :
  • 151951Z AUTO 27008G19KT 10SM FEW048 BKN060 OVC075 06/M04 A2957 RMK AO2 SLP011 T00611039

METARs OBSOLETI :
  • 151851Z AUTO 26009G18KT 10SM OVC049 07/M04 A2952 RMK AO2 SLP993 T00671039
  • 151751Z AUTO 28009G21KT 210V330 10SM CLR 06/M05 A2948 RMK AO2 PK WND 29028/1721 SLP982 T00611050 10078 20050 53025

TAF N/A



MetMap, La meteo Aeronautica in un colpo d'occhio ! - Copyright ORBIFLY Dicembre 2007 - Disclaimer

ORBIFLY MET'MAP TEAM :

Programmazione e sviluppo : Alexandra Zaïnal
Concezione : Baudouin d'Aumeries
Aiuto per la programmazione : Marc-Olivier Méhu
Supporto tecnico e logistico : Manuel Goepfert
Aiuto per la traduzione : Arnaldo La Scala

Contatto : metmap@orbifly.com




FONTI E CREDITI :

   NOAA